sensor_id;sensor_type;location;lat;lon;timestamp;pressure;altitude;pressure_sealevel;temperature;humidity
60871;BME280;46714;50.118;14.462;2024-03-23T00:55:41;98174.28;;;10.43;100.00
60871;BME280;46714;50.118;14.462;2024-03-23T00:58:07;98173.19;;;10.44;100.00
60871;BME280;46714;50.118;14.462;2024-03-23T01:00:33;98166.72;;;10.45;100.00
60871;BME280;46714;50.118;14.462;2024-03-23T01:02:58;98166.44;;;10.46;100.00
60871;BME280;46714;50.118;14.462;2024-03-23T01:05:24;98163.28;;;10.50;100.00
60871;BME280;46714;50.118;14.462;2024-03-23T01:07:49;98156.75;;;10.51;100.00
60871;BME280;46714;50.118;14.462;2024-03-23T01:10:14;98155.56;;;10.46;100.00
60871;BME280;46714;50.118;14.462;2024-03-23T01:12:40;98149.53;;;10.44;100.00
60871;BME280;46714;50.118;14.462;2024-03-23T01:15:05;98151.69;;;10.42;100.00
60871;BME280;46714;50.118;14.462;2024-03-23T01:17:31;98144.34;;;10.43;100.00
60871;BME280;46714;50.118;14.462;2024-03-23T01:19:57;98134.28;;;10.43;100.00
60871;BME280;46714;50.118;14.462;2024-03-23T01:22:22;98128.84;;;10.43;100.00
60871;BME280;46714;50.118;14.462;2024-03-23T01:24:47;98137.00;;;10.43;100.00
60871;BME280;46714;50.118;14.462;2024-03-23T01:27:13;98130.97;;;10.41;100.00
60871;BME280;46714;50.118;14.462;2024-03-23T01:29:38;98128.47;;;10.40;100.00
60871;BME280;46714;50.118;14.462;2024-03-23T01:32:04;98114.06;;;10.39;100.00
60871;BME280;46714;50.118;14.462;2024-03-23T01:34:29;98117.88;;;10.38;100.00
60871;BME280;46714;50.118;14.462;2024-03-23T01:36:55;98110.53;;;10.39;100.00
60871;BME280;46714;50.118;14.462;2024-03-23T01:39:20;98103.44;;;10.38;100.00
60871;BME280;46714;50.118;14.462;2024-03-23T01:41:45;98099.88;;;10.37;100.00
60871;BME280;46714;50.118;14.462;2024-03-23T01:44:11;98100.13;;;10.36;100.00
60871;BME280;46714;50.118;14.462;2024-03-23T01:46:37;98098.13;;;10.31;100.00
60871;BME280;46714;50.118;14.462;2024-03-23T01:49:03;98091.47;;;10.27;100.00
60871;BME280;46714;50.118;14.462;2024-03-23T01:51:29;98088.41;;;10.23;100.00
60871;BME280;46714;50.118;14.462;2024-03-23T01:53:56;98096.44;;;10.18;100.00
60871;BME280;46714;50.118;14.462;2024-03-23T01:56:21;98091.13;;;10.12;100.00
60871;BME280;46714;50.118;14.462;2024-03-23T01:58:47;98086.41;;;10.07;100.00
60871;BME280;46714;50.118;14.462;2024-03-23T02:01:12;98083.00;;;10.00;100.00
60871;BME280;46714;50.118;14.462;2024-03-23T02:03:37;98086.66;;;9.94;100.00
60871;BME280;46714;50.118;14.462;2024-03-23T02:06:03;98078.88;;;9.85;100.00
60871;BME280;46714;50.118;14.462;2024-03-23T02:08:28;98076.28;;;9.79;100.00
60871;BME280;46714;50.118;14.462;2024-03-23T02:10:56;98077.31;;;9.78;100.00
60871;BME280;46714;50.118;14.462;2024-03-23T02:13:21;98079.22;;;9.77;100.00
60871;BME280;46714;50.118;14.462;2024-03-23T02:15:48;98079.47;;;9.76;100.00
60871;BME280;46714;50.118;14.462;2024-03-23T02:18:13;98066.34;;;9.73;100.00
60871;BME280;46714;50.118;14.462;2024-03-23T02:20:38;98065.53;;;9.72;100.00
60871;BME280;46714;50.118;14.462;2024-03-23T02:23:04;98056.28;;;9.73;100.00
60871;BME280;46714;50.118;14.462;2024-03-23T02:25:33;98057.16;;;9.74;100.00
60871;BME280;46714;50.118;14.462;2024-03-23T02:27:58;98051.94;;;9.72;100.00
60871;BME280;46714;50.118;14.462;2024-03-23T02:30:25;98051.94;;;9.72;100.00
60871;BME280;46714;50.118;14.462;2024-03-23T02:32:51;98047.31;;;9.73;100.00
60871;BME280;46714;50.118;14.462;2024-03-23T02:35:16;98036.94;;;9.70;100.00
60871;BME280;46714;50.118;14.462;2024-03-23T02:37:42;98036.56;;;9.66;100.00
60871;BME280;46714;50.118;14.462;2024-03-23T02:40:07;98028.66;;;9.64;100.00
60871;BME280;46714;50.118;14.462;2024-03-23T02:42:33;98024.78;;;9.60;100.00
60871;BME280;46714;50.118;14.462;2024-03-23T02:44:58;98023.34;;;9.58;100.00
60871;BME280;46714;50.118;14.462;2024-03-23T02:47:24;98016.13;;;9.52;100.00
60871;BME280;46714;50.118;14.462;2024-03-23T02:49:49;98013.53;;;9.45;100.00
60871;BME280;46714;50.118;14.462;2024-03-23T02:52:14;98013.75;;;9.43;100.00
60871;BME280;46714;50.118;14.462;2024-03-23T02:54:40;98007.41;;;9.38;100.00
60871;BME280;46714;50.118;14.462;2024-03-23T02:57:07;98008.09;;;9.33;100.00
60871;BME280;46714;50.118;14.462;2024-03-23T02:59:32;98009.63;;;9.29;100.00
60871;BME280;46714;50.118;14.462;2024-03-23T03:01:58;98004.09;;;9.24;100.00
60871;BME280;46714;50.118;14.462;2024-03-23T03:04:25;98004.56;;;9.21;100.00
60871;BME280;46714;50.118;14.462;2024-03-23T03:06:50;98002.56;;;9.16;100.00
60871;BME280;46714;50.118;14.462;2024-03-23T03:09:15;97987.78;;;9.12;100.00
60871;BME280;46714;50.118;14.462;2024-03-23T03:11:41;97993.91;;;9.08;100.00
60871;BME280;46714;50.118;14.462;2024-03-23T03:14:06;97991.09;;;9.02;100.00
60871;BME280;46714;50.118;14.462;2024-03-23T03:16:33;97984.47;;;8.98;100.00
60871;BME280;46714;50.118;14.462;2024-03-23T03:18:58;97978.66;;;8.95;100.00
60871;BME280;46714;50.118;14.462;2024-03-23T03:21:23;97976.06;;;8.88;100.00
60871;BME280;46714;50.118;14.462;2024-03-23T03:23:49;97970.03;;;8.86;100.00
60871;BME280;46714;50.118;14.462;2024-03-23T03:26:15;97971.31;;;8.84;100.00
60871;BME280;46714;50.118;14.462;2024-03-23T03:28:41;97970.13;;;8.79;100.00
60871;BME280;46714;50.118;14.462;2024-03-23T03:31:08;97965.19;;;8.76;100.00
60871;BME280;46714;50.118;14.462;2024-03-23T03:33:33;97961.28;;;8.72;100.00
60871;BME280;46714;50.118;14.462;2024-03-23T03:35:59;97953.03;;;8.67;100.00
60871;BME280;46714;50.118;14.462;2024-03-23T03:38:24;97944.53;;;8.64;100.00
60871;BME280;46714;50.118;14.462;2024-03-23T03:40:49;97938.72;;;8.60;100.00
60871;BME280;46714;50.118;14.462;2024-03-23T03:43:15;97944.63;;;8.57;100.00
60871;BME280;46714;50.118;14.462;2024-03-23T03:45:40;97941.19;;;8.50;100.00
60871;BME280;46714;50.118;14.462;2024-03-23T03:48:05;97936.22;;;8.47;100.00
60871;BME280;46714;50.118;14.462;2024-03-23T03:50:31;97933.16;;;8.43;100.00
60871;BME280;46714;50.118;14.462;2024-03-23T03:52:57;97925.69;;;8.38;100.00
60871;BME280;46714;50.118;14.462;2024-03-23T03:55:22;97931.19;;;8.32;100.00
60871;BME280;46714;50.118;14.462;2024-03-23T03:57:47;97929.19;;;8.27;100.00
60871;BME280;46714;50.118;14.462;2024-03-23T04:00:13;97927.97;;;8.23;100.00
60871;BME280;46714;50.118;14.462;2024-03-23T04:02:38;97914.31;;;8.18;100.00
60871;BME280;46714;50.118;14.462;2024-03-23T04:05:04;97929.97;;;8.16;100.00
60871;BME280;46714;50.118;14.462;2024-03-23T04:07:30;97922.06;;;8.14;100.00
60871;BME280;46714;50.118;14.462;2024-03-23T04:09:56;97920.63;;;8.12;100.00
60871;BME280;46714;50.118;14.462;2024-03-23T04:12:21;97927.69;;;8.13;100.00
60871;BME280;46714;50.118;14.462;2024-03-23T04:14:47;97913.09;;;8.14;100.00
60871;BME280;46714;50.118;14.462;2024-03-23T04:17:12;97917.72;;;8.13;100.00
60871;BME280;46714;50.118;14.462;2024-03-23T04:19:37;97914.75;;;8.15;100.00
60871;BME280;46714;50.118;14.462;2024-03-23T04:22:03;97911.34;;;8.19;100.00
60871;BME280;46714;50.118;14.462;2024-03-23T04:24:29;97892.75;;;8.23;100.00
60871;BME280;46714;50.118;14.462;2024-03-23T04:26:54;97885.81;;;8.27;100.00
60871;BME280;46714;50.118;14.462;2024-03-23T04:29:19;97880.97;;;8.29;100.00
60871;BME280;46714;50.118;14.462;2024-03-23T04:31:45;97880.50;;;8.32;100.00
60871;BME280;46714;50.118;14.462;2024-03-23T04:34:10;97886.53;;;8.34;100.00
60871;BME280;46714;50.118;14.462;2024-03-23T04:36:36;97883.81;;;8.34;100.00
60871;BME280;46714;50.118;14.462;2024-03-23T04:39:01;97891.34;;;8.32;100.00
60871;BME280;46714;50.118;14.462;2024-03-23T04:41:27;97885.34;;;8.30;100.00
60871;BME280;46714;50.118;14.462;2024-03-23T04:43:52;97889.34;;;8.28;100.00
60871;BME280;46714;50.118;14.462;2024-03-23T04:46:17;97885.81;;;8.27;100.00
60871;BME280;46714;50.118;14.462;2024-03-23T04:48:43;97889.56;;;8.26;100.00
60871;BME280;46714;50.118;14.462;2024-03-23T04:51:20;97883.78;;;8.23;100.00
60871;BME280;46714;50.118;14.462;2024-03-23T04:53:46;97874.47;;;8.18;100.00
60871;BME280;46714;50.118;14.462;2024-03-23T04:56:13;97870.56;;;8.14;100.00
60871;BME280;46714;50.118;14.462;2024-03-23T04:58:38;97865.97;;;8.15;100.00
60871;BME280;46714;50.118;14.462;2024-03-23T05:01:04;97870.56;;;8.14;100.00
60871;BME280;46714;50.118;14.462;2024-03-23T05:03:29;97868.66;;;8.15;100.00
60871;BME280;46714;50.118;14.462;2024-03-23T05:05:54;97860.91;;;8.18;100.00
60871;BME280;46714;50.118;14.462;2024-03-23T05:08:20;97859.25;;;8.17;100.00
60871;BME280;46714;50.118;14.462;2024-03-23T05:10:45;97853.59;;;8.19;100.00
60871;BME280;46714;50.118;14.462;2024-03-23T05:13:11;97850.41;;;8.22;100.00
60871;BME280;46714;50.118;14.462;2024-03-23T05:15:37;97842.66;;;8.26;100.00
60871;BME280;46714;50.118;14.462;2024-03-23T05:18:02;97844.88;;;8.29;100.00
60871;BME280;46714;50.118;14.462;2024-03-23T05:20:30;97849.88;;;8.32;100.00
60871;BME280;46714;50.118;14.462;2024-03-23T05:22:55;97836.66;;;8.35;100.00
60871;BME280;46714;50.118;14.462;2024-03-23T05:25:21;97840.56;;;8.39;100.00
60871;BME280;46714;50.118;14.462;2024-03-23T05:27:46;97840.72;;;8.45;100.00
60871;BME280;46714;50.118;14.462;2024-03-23T05:30:11;97832.47;;;8.51;100.00
60871;BME280;46714;50.118;14.462;2024-03-23T05:32:37;97833.44;;;8.57;100.00
60871;BME280;46714;50.118;14.462;2024-03-23T05:35:05;97826.44;;;8.61;100.00
60871;BME280;46714;50.118;14.462;2024-03-23T05:37:34;97820.09;;;8.67;100.00
60871;BME280;46714;50.118;14.462;2024-03-23T05:40:00;97811.84;;;8.74;100.00
60871;BME280;46714;50.118;14.462;2024-03-23T05:42:25;97813.84;;;8.78;100.00
60871;BME280;46714;50.118;14.462;2024-03-23T05:44:51;97811.00;;;8.85;100.00
60871;BME280;46714;50.118;14.462;2024-03-23T05:47:17;97805.09;;;8.88;100.00
60871;BME280;46714;50.118;14.462;2024-03-23T05:49:42;97806.06;;;8.94;100.00
60871;BME280;46714;50.118;14.462;2024-03-23T05:52:08;97800.13;;;8.97;100.00
60871;BME280;46714;50.118;14.462;2024-03-23T05:54:35;97795.88;;;9.01;100.00
60871;BME280;46714;50.118;14.462;2024-03-23T05:57:03;97791.38;;;9.07;100.00
60871;BME280;46714;50.118;14.462;2024-03-23T05:59:29;97789.34;;;9.14;100.00
60871;BME280;46714;50.118;14.462;2024-03-23T06:01:54;97788.63;;;9.18;100.00
60871;BME280;46714;50.118;14.462;2024-03-23T06:04:20;97784.38;;;9.22;100.00
60871;BME280;46714;50.118;14.462;2024-03-23T06:06:46;97789.34;;;9.26;100.00
60871;BME280;46714;50.118;14.462;2024-03-23T06:09:11;97787.19;;;9.28;100.00
60871;BME280;46714;50.118;14.462;2024-03-23T06:11:37;97776.94;;;9.30;100.00
60871;BME280;46714;50.118;14.462;2024-03-23T06:14:02;97773.75;;;9.33;100.00
60871;BME280;46714;50.118;14.462;2024-03-23T06:16:27;97775.97;;;9.36;100.00
60871;BME280;46714;50.118;14.462;2024-03-23T06:18:53;97763.56;;;9.40;100.00
60871;BME280;46714;50.118;14.462;2024-03-23T06:21:20;97751.63;;;9.41;100.00
60871;BME280;46714;50.118;14.462;2024-03-23T06:23:45;97755.50;;;9.45;100.00
60871;BME280;46714;50.118;14.462;2024-03-23T06:26:18;97747.44;;;9.50;100.00
60871;BME280;46714;50.118;14.462;2024-03-23T06:28:44;97753.81;;;9.56;100.00
60871;BME280;46714;50.118;14.462;2024-03-23T06:31:09;97746.25;;;9.58;100.00
60871;BME280;46714;50.118;14.462;2024-03-23T06:33:35;97721.31;;;9.61;100.00
60871;BME280;46714;50.118;14.462;2024-03-23T06:36:00;97724.94;;;9.67;100.00
60871;BME280;46714;50.118;14.462;2024-03-23T06:38:27;97717.47;;;9.74;100.00
60871;BME280;46714;50.118;14.462;2024-03-23T06:40:52;97724.63;;;9.80;100.00
60871;BME280;46714;50.118;14.462;2024-03-23T06:43:17;97717.63;;;9.84;100.00
60871;BME280;46714;50.118;14.462;2024-03-23T06:45:43;97705.78;;;9.90;100.00
60871;BME280;46714;50.118;14.462;2024-03-23T06:48:09;97704.78;;;9.96;99.71
60871;BME280;46714;50.118;14.462;2024-03-23T06:50:34;97713.03;;;10.01;98.21
60871;BME280;46714;50.118;14.462;2024-03-23T06:53:00;97702.47;;;10.05;97.31
60871;BME280;46714;50.118;14.462;2024-03-23T06:55:27;97698.69;;;10.06;99.43
60871;BME280;46714;50.118;14.462;2024-03-23T06:57:53;97695.97;;;10.06;100.00
60871;BME280;46714;50.118;14.462;2024-03-23T07:00:18;97690.78;;;10.04;100.00
60871;BME280;46714;50.118;14.462;2024-03-23T07:02:44;97678.81;;;10.05;98.31
60871;BME280;46714;50.118;14.462;2024-03-23T07:05:09;97677.53;;;10.08;99.29
60871;BME280;46714;50.118;14.462;2024-03-23T07:07:35;97666.97;;;10.12;96.42
60871;BME280;46714;50.118;14.462;2024-03-23T07:10:01;97663.84;;;10.20;96.73
60871;BME280;46714;50.118;14.462;2024-03-23T07:12:28;97662.81;;;10.26;98.27
60871;BME280;46714;50.118;14.462;2024-03-23T07:14:53;97667.81;;;10.29;99.29
60871;BME280;46714;50.118;14.462;2024-03-23T07:17:18;97664.34;;;10.34;94.99
60871;BME280;46714;50.118;14.462;2024-03-23T07:19:44;97654.34;;;10.39;94.17
60871;BME280;46714;50.118;14.462;2024-03-23T07:22:09;97647.09;;;10.45;93.30
60871;BME280;46714;50.118;14.462;2024-03-23T07:24:35;97632.16;;;10.47;93.77
60871;BME280;46714;50.118;14.462;2024-03-23T07:27:00;97627.00;;;10.51;94.40
60871;BME280;46714;50.118;14.462;2024-03-23T07:29:27;97623.06;;;10.59;93.97
60871;BME280;46714;50.118;14.462;2024-03-23T07:31:52;97619.56;;;10.63;93.72
60871;BME280;46714;50.118;14.462;2024-03-23T07:34:18;97626.16;;;10.67;93.96
60871;BME280;46714;50.118;14.462;2024-03-23T07:36:43;97623.22;;;10.74;92.63
60871;BME280;46714;50.118;14.462;2024-03-23T07:39:08;97620.00;;;10.77;92.96
60871;BME280;46714;50.118;14.462;2024-03-23T07:41:34;97623.03;;;10.81;92.93
60871;BME280;46714;50.118;14.462;2024-03-23T07:44:00;97617.47;;;10.93;93.33
60871;BME280;46714;50.118;14.462;2024-03-23T07:46:26;97611.31;;;11.02;91.57
60871;BME280;46714;50.118;14.462;2024-03-23T07:48:51;97608.69;;;11.13;90.46
60871;BME280;46714;50.118;14.462;2024-03-23T07:51:18;97598.19;;;11.26;88.06
60871;BME280;46714;50.118;14.462;2024-03-23T07:53:45;97583.34;;;11.39;86.68
60871;BME280;46714;50.118;14.462;2024-03-23T07:56:14;97581.53;;;11.50;87.04
60871;BME280;46714;50.118;14.462;2024-03-23T07:58:44;97573.41;;;11.60;86.62
60871;BME280;46714;50.118;14.462;2024-03-23T08:01:16;97566.38;;;11.64;86.49
60871;BME280;46714;50.118;14.462;2024-03-23T08:03:45;97553.03;;;11.68;85.01
60871;BME280;46714;50.118;14.462;2024-03-23T08:08:41;97570.06;;;11.85;85.78
60871;BME280;46714;50.118;14.462;2024-03-23T08:11:07;97565.78;;;11.94;86.19
60871;BME280;46714;50.118;14.462;2024-03-23T08:13:34;97551.13;;;12.06;85.28
60871;BME280;46714;50.118;14.462;2024-03-23T08:16:00;97558.53;;;12.15;82.73
60871;BME280;46714;50.118;14.462;2024-03-23T08:18:27;97556.13;;;12.24;81.28
60871;BME280;46714;50.118;14.462;2024-03-23T08:20:59;97548.25;;;12.28;82.77
60871;BME280;46714;50.118;14.462;2024-03-23T08:23:25;97544.97;;;12.31;82.16
60871;BME280;46714;50.118;14.462;2024-03-23T08:25:52;97539.00;;;12.39;81.93
60871;BME280;46714;50.118;14.462;2024-03-23T08:28:22;97539.31;;;12.48;81.53
60871;BME280;46714;50.118;14.462;2024-03-23T08:30:47;97532.25;;;12.57;81.74
60871;BME280;46714;50.118;14.462;2024-03-23T08:33:14;97522.47;;;12.71;80.27
60871;BME280;46714;50.118;14.462;2024-03-23T08:35:40;97527.97;;;12.87;80.00
60871;BME280;46714;50.118;14.462;2024-03-23T08:38:06;97532.66;;;13.02;79.02
60871;BME280;46714;50.118;14.462;2024-03-23T08:40:31;97524.19;;;13.24;77.64
60871;BME280;46714;50.118;14.462;2024-03-23T08:42:57;97517.13;;;13.43;77.48
60871;BME280;46714;50.118;14.462;2024-03-23T08:45:23;97512.16;;;13.60;77.36
60871;BME280;46714;50.118;14.462;2024-03-23T08:47:49;97525.81;;;13.86;77.38
60871;BME280;46714;50.118;14.462;2024-03-23T08:50:15;97514.81;;;14.12;75.04
60871;BME280;46714;50.118;14.462;2024-03-23T08:52:41;97506.78;;;14.41;73.28
60871;BME280;46714;50.118;14.462;2024-03-23T08:55:06;97505.28;;;14.69;71.98
60871;BME280;46714;50.118;14.462;2024-03-23T08:57:32;97511.97;;;14.97;69.40
60871;BME280;46714;50.118;14.462;2024-03-23T08:59:57;97510.75;;;15.14;68.07
60871;BME280;46714;50.118;14.462;2024-03-23T09:02:23;97516.53;;;15.12;65.38
60871;BME280;46714;50.118;14.462;2024-03-23T09:04:48;97510.50;;;15.10;66.09
60871;BME280;46714;50.118;14.462;2024-03-23T09:07:13;97520.13;;;15.02;64.54
60871;BME280;46714;50.118;14.462;2024-03-23T09:09:39;97518.03;;;14.94;64.34
60871;BME280;46714;50.118;14.462;2024-03-23T09:12:05;97527.94;;;14.85;64.47
60871;BME280;46714;50.118;14.462;2024-03-23T09:14:31;97522.50;;;14.75;64.85
60871;BME280;46714;50.118;14.462;2024-03-23T09:16:57;97565.84;;;14.62;64.24
60871;BME280;46714;50.118;14.462;2024-03-23T09:19:23;97537.44;;;14.38;64.17
60871;BME280;46714;50.118;14.462;2024-03-23T09:21:49;97537.50;;;14.22;64.84
60871;BME280;46714;50.118;14.462;2024-03-23T09:24:14;97560.53;;;14.11;66.06
60871;BME280;46714;50.118;14.462;2024-03-23T09:26:39;97570.66;;;14.00;67.89
60871;BME280;46714;50.118;14.462;2024-03-23T09:29:05;97578.63;;;13.87;68.95
60871;BME280;46714;50.118;14.462;2024-03-23T09:31:30;97574.78;;;13.67;71.14
60871;BME280;46714;50.118;14.462;2024-03-23T09:33:57;97572.88;;;13.42;75.08
60871;BME280;46714;50.118;14.462;2024-03-23T09:36:23;97577.75;;;13.19;77.94
60871;BME280;46714;50.118;14.462;2024-03-23T09:38:48;97570.03;;;12.91;81.42
60871;BME280;46714;50.118;14.462;2024-03-23T09:41:13;97582.53;;;12.71;84.16
60871;BME280;46714;50.118;14.462;2024-03-23T09:43:40;97570.75;;;12.61;85.80
60871;BME280;46714;50.118;14.462;2024-03-23T09:46:05;97572.38;;;12.51;86.08
60871;BME280;46714;50.118;14.462;2024-03-23T09:48:31;97569.28;;;12.32;85.45
60871;BME280;46714;50.118;14.462;2024-03-23T09:50:56;97577.97;;;12.24;84.64
60871;BME280;46714;50.118;14.462;2024-03-23T09:53:22;97567.00;;;12.14;85.21
60871;BME280;46714;50.118;14.462;2024-03-23T09:55:47;97555.22;;;12.08;86.66
60871;BME280;46714;50.118;14.462;2024-03-23T09:58:14;97567.69;;;11.94;88.00
60871;BME280;46714;50.118;14.462;2024-03-23T10:00:41;97584.22;;;11.82;89.49
60871;BME280;46714;50.118;14.462;2024-03-23T10:03:06;97595.06;;;11.77;89.10
60871;BME280;46714;50.118;14.462;2024-03-23T10:05:32;97605.16;;;11.77;89.30
60871;BME280;46714;50.118;14.462;2024-03-23T10:10:38;97614.13;;;11.72;87.28
60871;BME280;46714;50.118;14.462;2024-03-23T10:13:03;97618.75;;;11.71;87.01
60871;BME280;46714;50.118;14.462;2024-03-23T10:15:29;97617.94;;;11.71;87.15
60871;BME280;46714;50.118;14.462;2024-03-23T10:17:54;97633.47;;;11.70;83.93
60871;BME280;46714;50.118;14.462;2024-03-23T10:20:20;97631.00;;;11.69;84.09
60871;BME280;46714;50.118;14.462;2024-03-23T10:22:49;97613.28;;;11.66;83.35
60871;BME280;46714;50.118;14.462;2024-03-23T10:25:22;97621.44;;;11.66;84.15
60871;BME280;46714;50.118;14.462;2024-03-23T10:28:00;97625.25;;;11.65;84.40
60871;BME280;46714;50.118;14.462;2024-03-23T10:30:26;97641.59;;;11.65;84.46
60871;BME280;46714;50.118;14.462;2024-03-23T10:33:06;97640.53;;;11.66;84.62
60871;BME280;46714;50.118;14.462;2024-03-23T10:35:39;97648.94;;;11.65;83.58
60871;BME280;46714;50.118;14.462;2024-03-23T10:38:04;97646.53;;;11.68;84.49
60871;BME280;46714;50.118;14.462;2024-03-23T10:40:31;97658.84;;;11.71;84.22
60871;BME280;46714;50.118;14.462;2024-03-23T10:42:59;97658.56;;;11.72;83.69
60871;BME280;46714;50.118;14.462;2024-03-23T10:45:25;97665.13;;;11.77;84.84
60871;BME280;46714;50.118;14.462;2024-03-23T10:47:51;97666.84;;;11.83;84.46
60871;BME280;46714;50.118;14.462;2024-03-23T10:50:17;97663.28;;;11.82;83.26
60871;BME280;46714;50.118;14.462;2024-03-23T10:52:45;97656.13;;;11.76;82.27
60871;BME280;46714;50.118;14.462;2024-03-23T10:55:13;97667.00;;;11.71;83.65
60871;BME280;46714;50.118;14.462;2024-03-23T10:57:41;97654.16;;;11.66;83.49
60871;BME280;46714;50.118;14.462;2024-03-23T11:00:09;97653.59;;;11.64;83.41
60871;BME280;46714;50.118;14.462;2024-03-23T11:02:35;97639.44;;;11.67;82.06
60871;BME280;46714;50.118;14.462;2024-03-23T11:05:01;97638.66;;;11.72;82.00
60871;BME280;46714;50.118;14.462;2024-03-23T11:09:52;97647.81;;;11.88;80.87
60871;BME280;46714;50.118;14.462;2024-03-23T11:14:48;97647.97;;;12.08;79.86
60871;BME280;46714;50.118;14.462;2024-03-23T11:17:18;97655.38;;;12.18;79.40
60871;BME280;46714;50.118;14.462;2024-03-23T11:19:44;97643.19;;;12.26;78.38
60871;BME280;46714;50.118;14.462;2024-03-23T11:25:02;97632.38;;;12.46;76.74
60871;BME280;46714;50.118;14.462;2024-03-23T11:27:28;97636.81;;;12.57;77.20
60871;BME280;46714;50.118;14.462;2024-03-23T11:29:53;97634.38;;;12.66;74.87
60871;BME280;46714;50.118;14.462;2024-03-23T11:32:18;97638.53;;;12.74;74.90
60871;BME280;46714;50.118;14.462;2024-03-23T11:34:44;97645.38;;;12.82;74.27
60871;BME280;46714;50.118;14.462;2024-03-23T11:37:09;97649.22;;;12.86;73.20
60871;BME280;46714;50.118;14.462;2024-03-23T11:39:35;97651.66;;;12.87;73.15
60871;BME280;46714;50.118;14.462;2024-03-23T11:42:00;97682.50;;;12.83;72.31
60871;BME280;46714;50.118;14.462;2024-03-23T11:44:26;97727.41;;;12.54;70.64
60871;BME280;46714;50.118;14.462;2024-03-23T11:46:52;97740.13;;;11.79;74.21
60871;BME280;46714;50.118;14.462;2024-03-23T11:51:47;97736.03;;;10.83;76.81
60871;BME280;46714;50.118;14.462;2024-03-23T11:54:13;97729.22;;;10.64;77.00
60871;BME280;46714;50.118;14.462;2024-03-23T11:56:38;97735.84;;;10.51;77.17
60871;BME280;46714;50.118;14.462;2024-03-23T11:59:04;97739.16;;;10.36;78.60
60871;BME280;46714;50.118;14.462;2024-03-23T12:01:29;97748.66;;;10.34;79.80
60871;BME280;46714;50.118;14.462;2024-03-23T12:03:54;97758.84;;;10.26;79.24
60871;BME280;46714;50.118;14.462;2024-03-23T12:06:20;97771.53;;;10.21;76.85
60871;BME280;46714;50.118;14.462;2024-03-23T12:08:45;97768.66;;;10.11;72.86
60871;BME280;46714;50.118;14.462;2024-03-23T12:11:11;97803.72;;;9.95;72.13
60871;BME280;46714;50.118;14.462;2024-03-23T12:13:39;97802.13;;;9.82;70.00
60871;BME280;46714;50.118;14.462;2024-03-23T12:16:17;97815.16;;;9.80;69.32
60871;BME280;46714;50.118;14.462;2024-03-23T12:18:46;97802.44;;;9.57;68.57
60871;BME280;46714;50.118;14.462;2024-03-23T12:21:14;97802.81;;;9.61;68.19
60871;BME280;46714;50.118;14.462;2024-03-23T12:23:39;97804.44;;;9.62;67.34
60871;BME280;46714;50.118;14.462;2024-03-23T12:26:05;97807.03;;;9.69;67.97
60871;BME280;46714;50.118;14.462;2024-03-23T12:28:31;97795.28;;;9.80;67.20
60871;BME280;46714;50.118;14.462;2024-03-23T12:30:57;97797.25;;;9.84;67.77
60871;BME280;46714;50.118;14.462;2024-03-23T12:33:23;97814.78;;;9.77;65.66
60871;BME280;46714;50.118;14.462;2024-03-23T12:35:48;97817.50;;;9.77;66.71
60871;BME280;46714;50.118;14.462;2024-03-23T12:38:15;97826.56;;;9.82;66.94
60871;BME280;46714;50.118;14.462;2024-03-23T12:40:41;97819.72;;;9.80;66.43
60871;BME280;46714;50.118;14.462;2024-03-23T12:43:06;97841.88;;;9.72;64.74
60871;BME280;46714;50.118;14.462;2024-03-23T12:45:32;97833.59;;;9.67;65.67
60871;BME280;46714;50.118;14.462;2024-03-23T12:47:58;97851.66;;;9.73;65.88
60871;BME280;46714;50.118;14.462;2024-03-23T12:50:23;97860.63;;;9.73;65.37
60871;BME280;46714;50.118;14.462;2024-03-23T12:52:49;97881.59;;;9.61;64.57
60871;BME280;46714;50.118;14.462;2024-03-23T12:55:14;97900.38;;;9.62;65.73
60871;BME280;46714;50.118;14.462;2024-03-23T12:57:39;97922.28;;;9.44;65.02
60871;BME280;46714;50.118;14.462;2024-03-23T13:00:08;97916.38;;;9.35;65.87
60871;BME280;46714;50.118;14.462;2024-03-23T13:02:36;97937.38;;;9.40;65.98
60871;BME280;46714;50.118;14.462;2024-03-23T13:05:03;97941.41;;;9.26;64.97
60871;BME280;46714;50.118;14.462;2024-03-23T13:07:29;97943.03;;;9.27;66.33
60871;BME280;46714;50.118;14.462;2024-03-23T13:09:54;97947.66;;;9.26;64.68
60871;BME280;46714;50.118;14.462;2024-03-23T13:12:21;97943.28;;;9.25;64.11
60871;BME280;46714;50.118;14.462;2024-03-23T13:14:47;97975.75;;;9.20;63.68
60871;BME280;46714;50.118;14.462;2024-03-23T13:17:13;97966.56;;;9.21;64.54
60871;BME280;46714;50.118;14.462;2024-03-23T13:19:38;97977.28;;;9.28;62.97
60871;BME280;46714;50.118;14.462;2024-03-23T13:22:04;97985.19;;;9.29;63.42
60871;BME280;46714;50.118;14.462;2024-03-23T13:24:30;97957.00;;;9.30;62.72
60871;BME280;46714;50.118;14.462;2024-03-23T13:26:56;97974.00;;;9.37;63.04
60871;BME280;46714;50.118;14.462;2024-03-23T13:29:22;97991.09;;;9.38;62.44
60871;BME280;46714;50.118;14.462;2024-03-23T13:31:49;98008.69;;;9.35;62.58
60871;BME280;46714;50.118;14.462;2024-03-23T13:34:15;97994.41;;;9.40;62.44
60871;BME280;46714;50.118;14.462;2024-03-23T13:36:44;97973.97;;;9.49;62.27
60871;BME280;46714;50.118;14.462;2024-03-23T13:39:10;97977.75;;;9.60;61.25
60871;BME280;46714;50.118;14.462;2024-03-23T13:41:40;97990.63;;;9.76;60.36
60871;BME280;46714;50.118;14.462;2024-03-23T13:44:06;97981.34;;;9.89;59.98
60871;BME280;46714;50.118;14.462;2024-03-23T13:46:32;97987.66;;;9.90;59.21
60871;BME280;46714;50.118;14.462;2024-03-23T13:48:58;97984.56;;;9.86;59.67
60871;BME280;46714;50.118;14.462;2024-03-23T13:51:24;97997.78;;;9.94;60.83
60871;BME280;46714;50.118;14.462;2024-03-23T13:53:52;98013.63;;;9.97;59.79